Data for 03/24/2014

Time Sea-Level Adjusted Pressure Absolute Pressure Temperature Relative Humidity Dew Point   
(mb) (inHg) (mb) (inHg) (C) (F) (%) (C) (F)
00:05 1022 30.18 851 25.13 -3 26.6 71 -7.5 18.5
00:10 1022 30.18 851 25.13 -3.1 26.3 71 -7.6 18.3
00:15 1022 30.18 851 25.13 -3.2 26.2 72 -7.7 18.2
00:20 1022 30.18 851 25.13 -3.3 26 72 -7.7 18.1
00:25 1022 30.18 851 25.13 -3.4 25.9 72 -7.7 18.1
00:30 1022 30.18 851 25.13 -3.5 25.7 73 -7.8 18
00:35 1022 30.18 851 25.13 -3.5 25.6 72 -7.9 17.8
00:40 1022 30.18 851 25.13 -3.6 25.6 71 -8.1 17.5
00:45 1022 30.18 851 25.13 -3.5 25.7 71 -8 17.6
00:50 1022 30.18 851 25.13 -3.5 25.7 71 -8.1 17.5
00:55 1022 30.18 852 25.16 -3.4 25.9 71 -8 17.6
01:00 1022 30.18 852 25.16 -3.5 25.8 71 -8 17.5
01:05 1022 30.18 852 25.16 -3.5 25.7 70 -8.2 17.2
01:10 1022 30.18 852 25.16 -3.5 25.8 70 -8.2 17.2
01:15 1023 30.21 852 25.16 -3.4 25.9 69 -8.3 17
01:20 1023 30.21 852 25.16 -3.3 26 67 -8.6 16.5
01:25 1023 30.21 852 25.16 -3.4 26 66 -8.8 16.2
01:30 1023 30.21 852 25.16 -3.4 25.8 66 -8.8 16.1
01:35 1023 30.21 852 25.16 -3.4 25.8 66 -8.9 16
01:40 1023 30.21 852 25.16 -3.3 26.1 66 -8.8 16.2
01:45 1023 30.21 852 25.16 -3.2 26.3 61 -9.6 14.7
01:50 1023 30.21 852 25.16 -2.8 26.9 60 -9.5 14.9
01:55 1023 30.21 852 25.16 -2.7 27.1 61 -9.2 15.4
02:00 1023 30.21 852 25.16 -2.9 26.9 65 -8.4 16.8
02:05 1023 30.21 852 25.16 -3.1 26.4 66 -8.6 16.6
02:10 1023 30.21 852 25.16 -3.2 26.2 65 -8.9 16
02:15 1023 30.21 852 25.16 -3.2 26.3 63 -9.1 15.6
02:20 1023 30.21 852 25.16 -2.9 26.7 62 -9.2 15.4
02:25 1023 30.21 852 25.16 -2.7 27.1 62 -9 15.8
02:30 1023 30.21 852 25.16 -2.7 27.2 63 -8.8 16.1
02:35 1023 30.21 852 25.16 -2.6 27.4 63 -8.7 16.3
02:40 1023 30.21 852 25.16 -2.5 27.4 63 -8.6 16.5
02:45 1023 30.21 852 25.16 -2.6 27.3 64 -8.6 16.5
02:50 1023 30.21 852 25.16 -2.6 27.3 63 -8.7 16.4
02:55 1023 30.21 852 25.16 -2.6 27.3 64 -8.6 16.6
03:00 1023 30.21 852 25.16 -2.6 27.3 64 -8.5 16.8
03:05 1023 30.21 852 25.16 -2.8 27 65 -8.5 16.6
03:10 1023 30.21 852 25.16 -3.2 26.3 65 -8.9 16
03:15 1023 30.21 852 25.16 -3.2 26.2 65 -8.9 15.9
03:20 1023 30.21 852 25.16 -3.2 26.2 65 -9 15.8
03:25 1023 30.21 852 25.16 -3.3 26 65 -8.9 16
03:30 1023 30.21 852 25.16 -3.3 26 67 -8.7 16.4
03:35 1023 30.21 852 25.16 -3.4 25.9 68 -8.4 16.8
03:40 1023 30.21 853 25.19 -3.3 26 70 -8 17.6
03:45 1023 30.21 853 25.19 -3.4 25.8 71 -7.9 17.7
03:50 1023 30.21 853 25.19 -3.6 25.6 72 -8 17.6
03:55 1023 30.21 853 25.19 -3.8 25.2 73 -8 17.6
04:00 1024 30.24 853 25.19 -3.9 25 73 -8 17.6
04:05 1024 30.24 853 25.19 -4.1 24.6 74 -8 17.6
04:10 1024 30.24 853 25.19 -4.2 24.4 74 -8.1 17.4
04:15 1024 30.24 853 25.19 -4.2 24.5 75 -7.9 17.8
04:20 1024 30.24 853 25.19 -4.2 24.4 76 -7.9 17.9
04:25 1024 30.24 853 25.19 -4.4 24.2 77 -7.8 17.9
04:30 1024 30.24 853 25.19 -4.4 24 77 -7.9 17.8
04:35 1024 30.24 853 25.19 -4.5 23.9 78 -7.8 18
04:40 1024 30.24 853 25.19 -4.7 23.5 78 -8 17.7
04:45 1024 30.24 853 25.19 -5 22.9 80 -8 17.6
04:50 1024 30.24 853 25.19 -5.2 22.6 82 -7.8 17.9
04:55 1024 30.24 853 25.19 -5.4 22.2 79 -8.4 16.8
05:00 1024 30.24 853 25.19 -5.7 21.8 80 -8.7 16.4
05:05 1024 30.24 853 25.19 -5.9 21.3 81 -8.7 16.3
05:10 1024 30.24 853 25.19 -6 21.1 81 -8.8 16.1
05:15 1024 30.24 853 25.19 -6.2 20.9 81 -8.9 16
05:20 1024 30.24 853 25.19 -6.3 20.7 81 -9 15.8
05:25 1024 30.24 853 25.19 -6.5 20.4 82 -9.1 15.6
05:30 1024 30.24 853 25.19 -6.6 20.1 83 -9 15.8
05:35 1024 30.24 853 25.19 -6.5 20.2 83 -9 15.9
05:40 1024 30.24 853 25.19 -6.6 20.1 83 -9 15.8
05:45 1024 30.24 853 25.19 -6.7 20 84 -9 15.7
05:50 1024 30.24 854 25.22 -6.7 19.9 84 -9.1 15.7
05:55 1024 30.24 854 25.22 -6.8 19.8 84 -9.1 15.7
06:00 1024 30.24 854 25.22 -6.8 19.7 84 -9.1 15.6
06:05 1024 30.24 854 25.22 -6.8 19.8 84 -9 15.8
06:10 1024 30.24 854 25.22 -6.6 20 83 -9 15.8
06:15 1024 30.24 854 25.22 -6.7 19.9 83 -9.1 15.6
06:20 1024 30.24 854 25.22 -6.9 19.5 84 -9.3 15.3
06:25 1024 30.24 854 25.22 -7.1 19.3 84 -9.3 15.3
06:30 1025 30.27 854 25.22 -7.1 19.3 84 -9.3 15.2
06:35 1025 30.27 854 25.22 -7 19.4 84 -9.3 15.3
06:40 1025 30.27 854 25.22 -6.6 20.1 81 -9.4 15.1
06:45 1025 30.27 854 25.22 -6.3 20.7 79 -9.4 15.1
06:50 1025 30.27 854 25.22 -6.4 20.5 79 -9.4 15
06:55 1025 30.27 854 25.22 -6.5 20.3 80 -9.5 15
07:00 1025 30.27 854 25.22 -6.3 20.6 79 -9.5 15
07:05 1025 30.27 854 25.22 -5.7 21.7 76 -9.3 15.3
07:10 1025 30.27 854 25.22 -5.3 22.5 74 -9.1 15.6
07:15 1025 30.27 854 25.22 -4.8 23.4 72 -9.1 15.7
07:20 1025 30.27 854 25.22 -4.6 23.8 71 -9.1 15.7
07:25 1025 30.27 854 25.22 -4.1 24.6 69 -8.9 15.9
07:30 1025 30.27 854 25.22 -4.2 24.4 70 -8.9 16
07:35 1025 30.27 854 25.22 -4.4 24 70 -9.1 15.5
07:40 1025 30.27 854 25.22 -4 24.7 68 -9.1 15.7
07:45 1025 30.27 854 25.22 -3.9 25 67 -9 15.7
07:50 1025 30.27 854 25.22 -3.9 25 69 -8.7 16.3
07:55 1025 30.27 854 25.22 -3.4 25.9 65 -9.1 15.7
08:00 1025 30.27 854 25.22 -3.1 26.5 64 -8.9 15.9
08:05 1025 30.27 854 25.22 -2.8 27 65 -8.5 16.8
08:10 1025 30.27 854 25.22 -2.4 27.6 64 -8.3 17.1
08:15 1025 30.27 854 25.22 -2.6 27.3 66 -8.1 17.5
08:20 1025 30.27 854 25.22 -2.2 28 64 -8.2 17.3
08:25 1025 30.27 854 25.22 -2 28.4 64 -8 17.7
08:30 1025 30.27 854 25.22 -1.8 28.8 64 -7.7 18.2
08:35 1025 30.27 855 25.25 -1.6 29.2 61 -8 17.5
08:40 1025 30.27 855 25.25 -1.9 28.6 66 -7.4 18.6
08:45 1025 30.27 855 25.25 -2.2 28 63 -8.3 17.1
08:50 1025 30.27 854 25.22 -1.9 28.5 64 -8 17.7
08:55 1025 30.27 854 25.22 -2 28.5 64 -7.9 17.7
09:00 1025 30.27 855 25.25 -1.7 29 64 -7.7 18.2
09:05 1025 30.27 855 25.25 -1.9 28.6 64 -7.8 18
09:10 1025 30.27 855 25.25 -1.8 28.9 63 -7.8 17.9
09:15 1025 30.27 855 25.25 -1.5 29.3 62 -7.8 18
09:20 1025 30.27 855 25.25 -1.4 29.5 63 -7.6 18.4
09:25 1025 30.27 855 25.25 -1.3 29.7 63 -7.5 18.5
09:30 1025 30.27 855 25.25 -1.8 28.8 64 -7.7 18.2
09:35 1025 30.27 855 25.25 -1.9 28.7 65 -7.7 18.2
09:40 1025 30.27 855 25.25 -1.5 29.3 63 -7.5 18.4
09:45 1025 30.27 855 25.25 -1.1 30 61 -7.7 18.1
09:50 1025 30.27 855 25.25 -1.6 29.1 66 -7.2 19
09:55 1025 30.27 855 25.25 -1.4 29.5 63 -7.5 18.4
10:00 1025 30.27 855 25.25 -0.7 30.7 62 -7.2 19.1
10:05 1025 30.27 855 25.25 -0.8 30.6 64 -6.8 19.8
10:10 1025 30.27 854 25.22 -0.4 31.2 61 -7 19.4
10:15 1025 30.27 854 25.22 -0.6 30.9 62 -7 19.5
10:20 1025 30.27 854 25.22 -0.1 31.8 59 -7.1 19.3
10:25 1025 30.27 854 25.22 -0.2 31.6 61 -6.8 19.8
10:30 1025 30.27 854 25.22 -0.3 31.5 62 -6.7 19.9
10:35 1025 30.27 854 25.22 0.4 32.7 60 -6.5 20.3
10:40 1025 30.27 854 25.22 0.2 32.3 63 -6.1 21
10:45 1025 30.27 854 25.22 -0.2 31.7 62 -6.6 20.1
10:50 1025 30.27 854 25.22 -0.3 31.5 64 -6.3 20.7
10:55 1025 30.27 854 25.22 0.2 32.3 61 -6.6 20.1
11:00 1025 30.27 854 25.22 0.2 32.3 64 -5.8 21.5
11:05 1025 30.27 854 25.22 -0.5 31 65 -6.3 20.7
11:10 1025 30.27 854 25.22 -0.6 30.8 64 -6.5 20.2
11:15 1025 30.27 854 25.22 -0.4 31.3 64 -6.4 20.4
11:20 1025 30.27 854 25.22 -0.6 31 64 -6.5 20.3
11:25 1025 30.27 854 25.22 -0.7 30.8 65 -6.4 20.4
11:30 1025 30.27 854 25.22 0.3 32.6 60 -6.5 20.3
11:35 1025 30.27 854 25.22 1.3 34.4 56 -6.6 20.1
11:40 1025 30.27 854 25.22 1.8 35.3 59 -5.5 22.2
11:45 1025 30.27 854 25.22 0.7 33.3 60 -6.2 20.9
11:50 1025 30.27 854 25.22 1.3 34.4 58 -6 21.2
11:55 1025 30.27 854 25.22 1.6 34.8 55 -6.6 20.1
12:00 1025 30.27 854 25.22 1.8 35.2 57 -5.9 21.5
12:05 1025 30.27 854 25.22 1.7 35 58 -5.8 21.5
12:10 1025 30.27 854 25.22 1.4 34.6 59 -5.8 21.5
12:15 1025 30.27 854 25.22 1.8 35.2 56 -6 21.1
12:20 1025 30.27 854 25.22 2.3 36.2 50 -7 19.5
12:25 1025 30.27 854 25.22 3.2 37.8 47 -7 19.4
12:30 1025 30.27 854 25.22 2 35.5 50 -7.4 18.7
12:35 1025 30.27 854 25.22 2.4 36.3 49 -7.2 19
12:40 1025 30.27 854 25.22 3.1 37.6 48 -6.7 19.9
12:45 1025 30.27 854 25.22 3.1 37.5 51 -6.1 21.1
12:50 1024 30.24 854 25.22 2.6 36.7 56 -5.3 22.4
12:55 1024 30.24 854 25.22 1.9 35.4 57 -5.7 21.8
13:00 1024 30.24 853 25.19 1.8 35.2 55 -6.2 20.8
13:05 1024 30.24 853 25.19 2.1 35.9 54 -6.2 20.9
13:10 1024 30.24 853 25.19 1.7 35.1 56 -6.2 20.8
13:15 1024 30.24 853 25.19 2 35.5 52 -6.9 19.5
13:20 1024 30.24 853 25.19 3 37.4 51 -6.1 21
13:25 1024 30.24 853 25.19 2.8 37.1 53 -5.8 21.6
13:30 1024 30.24 853 25.19 2.6 36.7 51 -6.5 20.3
13:35 1024 30.24 853 25.19 3.3 38 51 -5.9 21.5
13:40 1024 30.24 853 25.19 3.7 38.7 48 -6.3 20.7
13:45 1024 30.24 853 25.19 3.3 38 53 -5.4 22.3
13:50 1024 30.24 853 25.19 2.1 35.8 57 -5.6 21.9
13:55 1024 30.24 853 25.19 1.9 35.5 56 -6 21.2
14:00 1024 30.24 853 25.19 1.6 34.9 57 -6 21.2
14:05 1024 30.24 853 25.19 1.6 34.9 57 -6.1 21.1
14:10 1024 30.24 853 25.19 1.9 35.4 57 -5.8 21.5
14:15 1024 30.24 853 25.19 1.8 35.3 58 -5.6 22
14:20 1023 30.21 853 25.19 2.2 35.9 56 -5.7 21.7
14:25 1024 30.24 853 25.19 2.2 36 54 -6.1 21
14:30 1023 30.21 853 25.19 2 35.7 57 -5.6 21.9
14:35 1023 30.21 853 25.19 1.8 35.2 55 -6.3 20.7
14:40 1023 30.21 853 25.19 1.9 35.4 56 -5.9 21.3
14:45 1023 30.21 853 25.19 1.7 35 57 -5.8 21.5
14:50 1023 30.21 853 25.19 1.5 34.8 56 -6.2 20.8
14:55 1023 30.21 853 25.19 1.8 35.2 57 -5.8 21.6
15:00 1023 30.21 853 25.19 2 35.6 55 -6.1 21
15:05 1023 30.21 852 25.16 1.9 35.4 55 -6.2 20.8
15:10 1023 30.21 852 25.16 2 35.5 54 -6.3 20.7
15:15 1023 30.21 852 25.16 2.6 36.6 53 -6.1 21.1
15:20 1023 30.21 852 25.16 2.4 36.3 55 -5.8 21.5
15:25 1023 30.21 852 25.16 2.2 36 54 -6 21.1
15:30 1023 30.21 852 25.16 2.3 36.1 52 -6.5 20.3
15:35 1023 30.21 852 25.16 2.4 36.3 52 -6.5 20.3
15:40 1023 30.21 852 25.16 2.3 36.1 54 -6.2 20.8
15:45 1023 30.21 852 25.16 2 35.5 52 -7 19.4
15:50 1023 30.21 852 25.16 2.3 36.1 51 -6.8 19.7
15:55 1023 30.21 852 25.16 2.6 36.7 49 -7 19.4
16:00 1023 30.21 852 25.16 2.6 36.7 49 -7 19.5
16:05 1023 30.21 852 25.16 2.8 37 48 -7.3 18.9
16:10 1023 30.21 852 25.16 2.7 36.9 48 -7.2 19
16:15 1023 30.21 852 25.16 2.6 36.7 46 -7.8 17.9
16:20 1023 30.21 852 25.16 2.5 36.5 46 -7.8 17.9
16:25 1023 30.21 852 25.16 2.7 36.8 45 -8 17.5
16:30 1023 30.21 852 25.16 2.7 36.8 46 -7.8 17.9
16:35 1023 30.21 852 25.16 2.9 37.1 44 -8.3 17.1
16:40 1023 30.21 852 25.16 2.8 37.1 45 -8 17.6
16:45 1023 30.21 852 25.16 2.9 37.1 45 -7.8 18
16:50 1023 30.21 852 25.16 2.8 37.1 44 -8.3 17
16:55 1023 30.21 852 25.16 2.9 37.3 44 -8.2 17.3
17:00 1023 30.21 852 25.16 3 37.5 43 -8.5 16.8
17:05 1023 30.21 852 25.16 3.3 37.9 41 -8.8 16.1
17:10 1023 30.21 852 25.16 3.2 37.8 38 -9.6 14.7
17:15 1023 30.21 852 25.16 3 37.4 39 -9.7 14.5
17:20 1023 30.21 852 25.16 2.9 37.2 40 -9.4 15
17:25 1023 30.21 852 25.16 3 37.5 40 -9.3 15.3
17:30 1023 30.21 852 25.16 3 37.5 39 -9.5 14.9
17:35 1023 30.21 852 25.16 2.7 36.8 54 -5.7 21.8
17:40 1023 30.21 852 25.16 2 35.6 58 -5.5 22.1
17:45 1023 30.21 852 25.16 1.6 35 58 -5.7 21.7
17:50 1023 30.21 852 25.16 1.3 34.3 60 -5.8 21.6
17:55 1023 30.21 852 25.16 0.9 33.6 61 -5.7 21.7
18:00 1023 30.21 852 25.16 0.6 33.1 62 -5.9 21.5
18:05 1023 30.21 852 25.16 0.4 32.8 63 -5.8 21.5
18:10 1023 30.21 852 25.16 0.2 32.3 63 -6 21.2
18:15 1023 30.21 852 25.16 0 32.1 65 -5.8 21.5
18:20 1023 30.21 852 25.16 -0.1 31.8 65 -5.9 21.4
18:25 1023 30.21 852 25.16 -0.2 31.6 65 -6 21.2
18:30 1023 30.21 852 25.16 -0.3 31.5 65 -6.1 21.1
18:35 1023 30.21 852 25.16 -0.4 31.2 65 -6.1 21
18:40 1023 30.21 852 25.16 -0.5 31.1 66 -6.2 20.9
18:45 1023 30.21 852 25.16 -0.7 30.7 66 -6.2 20.8
18:50 1023 30.21 852 25.16 -0.8 30.5 66 -6.4 20.5
18:55 1023 30.21 852 25.16 -0.9 30.4 67 -6.4 20.6
19:00 1023 30.21 852 25.16 -1 30.2 67 -6.4 20.5
19:05 1023 30.21 852 25.16 -1.1 30 68 -6.3 20.6
19:10 1023 30.21 852 25.16 -1.3 29.6 68 -6.4 20.4
19:15 1023 30.21 852 25.16 -1.4 29.4 68 -6.6 20.2
19:20 1023 30.21 852 25.16 -1.5 29.3 69 -6.5 20.2
19:25 1023 30.21 852 25.16 -1.7 29 69 -6.6 20.2
19:30 1023 30.21 852 25.16 -1.8 28.8 69 -6.8 19.8
19:35 1023 30.21 852 25.16 -1.8 28.7 69 -6.8 19.8
19:40 1023 30.21 852 25.16 -1.9 28.6 69 -6.9 19.6
19:45 1023 30.21 852 25.16 -1.9 28.7 68 -7 19.4
19:50 1023 30.21 852 25.16 -1.8 28.7 68 -7 19.3
19:55 1023 30.21 852 25.16 -1.9 28.6 68 -7.1 19.3
20:00 1023 30.21 852 25.16 -1.9 28.5 68 -7.1 19.2
20:05 1023 30.21 852 25.16 -2 28.5 69 -7 19.4
20:10 1023 30.21 852 25.16 -2 28.3 69 -7.1 19.3
20:15 1023 30.21 852 25.16 -2.1 28.2 68 -7.1 19.1
20:20 1023 30.21 852 25.16 -2.1 28.2 68 -7.2 19.1
20:25 1023 30.21 852 25.16 -2.2 28.1 68 -7.2 19
20:30 1023 30.21 852 25.16 -2.2 28.1 68 -7.4 18.7
20:35 1023 30.21 852 25.16 -2.2 28 67 -7.5 18.5
20:40 1022 30.18 852 25.16 -2.3 27.8 68 -7.5 18.5
20:45 1022 30.18 852 25.16 -2.5 27.5 67 -7.7 18.1
20:50 1023 30.21 852 25.16 -2.6 27.4 68 -7.7 18.1
20:55 1023 30.21 852 25.16 -2.6 27.4 68 -7.8 18
21:00 1023 30.21 852 25.16 -2.6 27.3 68 -7.8 17.9
21:05 1023 30.21 852 25.16 -2.6 27.3 68 -7.8 18
21:10 1023 30.21 852 25.16 -2.6 27.3 68 -7.8 17.9
21:15 1023 30.21 852 25.16 -2.6 27.3 68 -7.7 18.1
21:20 1022 30.18 852 25.16 -2.6 27.4 68 -7.6 18.3
21:25 1023 30.21 852 25.16 -2.6 27.4 68 -7.7 18.2
21:30 1023 30.21 852 25.16 -2.6 27.4 69 -7.5 18.5
21:35 1023 30.21 852 25.16 -2.7 27.1 70 -7.5 18.4
21:40 1023 30.21 852 25.16 -2.9 26.8 71 -7.5 18.5
21:45 1023 30.21 852 25.16 -3 26.7 71 -7.4 18.6
21:50 1023 30.21 852 25.16 -3.1 26.5 73 -7.3 18.9
21:55 1023 30.21 852 25.16 -3.2 26.2 74 -7.3 18.9
22:00 1022 30.18 852 25.16 -3.3 26 75 -7.2 19
22:05 1022 30.18 852 25.16 -3.5 25.7 76 -7.2 19.1
22:10 1022 30.18 852 25.16 -3.6 25.5 76 -7.2 19
22:15 1022 30.18 851 25.13 -3.7 25.4 76 -7.2 19
22:20 1022 30.18 851 25.13 -3.7 25.3 77 -7.2 19
22:25 1022 30.18 851 25.13 -3.7 25.3 77 -7.2 19
22:30 1022 30.18 851 25.13 -3.8 25.2 77 -7.3 18.9
22:35 1022 30.18 851 25.13 -3.7 25.3 77 -7.3 18.9
22:40 1022 30.18 851 25.13 -3.7 25.3 76 -7.4 18.7
22:45 1022 30.18 851 25.13 -3.7 25.4 75 -7.4 18.6
22:50 1022 30.18 851 25.13 -3.6 25.4 75 -7.5 18.5
22:55 1022 30.18 851 25.13 -3.6 25.5 75 -7.5 18.6
23:00 1022 30.18 851 25.13 -3.7 25.3 75 -7.5 18.6
23:05 1022 30.18 851 25.13 -3.7 25.3 76 -7.4 18.7
23:10 1022 30.18 851 25.13 -3.8 25.2 76 -7.4 18.6
23:15 1022 30.18 851 25.13 -3.8 25.1 76 -7.4 18.6
23:20 1022 30.18 851 25.13 -3.8 25.1 76 -7.4 18.7
23:25 1022 30.18 851 25.13 -3.9 25.1 76 -7.5 18.6
23:30 1022 30.18 851 25.13 -3.9 25.1 75 -7.6 18.3
23:35 1022 30.18 851 25.13 -3.8 25.2 75 -7.6 18.3
23:40 1021 30.15 851 25.13 -3.7 25.3 75 -7.6 18.4
23:45 1021 30.15 851 25.13 -3.8 25.2 75 -7.5 18.4
23:50 1021 30.15 851 25.13 -3.8 25.1 75 -7.6 18.3
23:55 1021 30.15 851 25.13 -3.8 25.1 75 -7.6 18.3
24:00 1021 30.15 851 25.13 -3.9 25.1 76 -7.5 18.5